Time;durP1;ratioP1;P1;durP2;ratioP2;P2;SDS_P1;SDS_P2;PMS_P1;PMS_P2;Temp;Humidity;BMP_temperature;BMP_pressure;BME280_temperature;BME280_humidity;BME280_pressure;Samples;Min_cycle;Max_cycle;Signal;HPM_P1;HPM_P2
2023/03/13 00:00:08;;;;;;;5.03;1.60;;;25.90;99.90;;;;;;5076674;28;20930;-79
2023/03/13 00:02:44;;;;;;;4.32;1.38;;;25.80;99.90;;;;;;5071827;28;21029;-78
2023/03/13 00:05:15;;;;;;;6.15;1.42;;;25.70;99.90;;;;;;5076121;28;20329;-78
2023/03/13 00:07:48;;;;;;;5.57;1.52;;;25.70;99.90;;;;;;5074997;28;20234;-78
2023/03/13 00:10:19;;;;;;;4.90;1.42;;;25.80;99.90;;;;;;5077757;28;20206;-79
2023/03/13 00:12:51;;;;;;;3.95;1.33;;;25.70;99.90;;;;;;5094490;28;20199;-80
2023/03/13 00:15:22;;;;;;;7.15;1.60;;;25.80;99.90;;;;;;5113136;28;20199;-80
2023/03/13 00:17:53;;;;;;;4.35;1.50;;;25.70;99.90;;;;;;5108229;28;20199;-80
2023/03/13 00:20:24;;;;;;;6.95;1.67;;;25.70;99.90;;;;;;5098096;28;20194;-80
2023/03/13 00:22:58;;;;;;;7.18;1.30;;;25.80;99.90;;;;;;5121224;28;20202;-80
2023/03/13 00:25:29;;;;;;;6.57;1.52;;;25.80;99.90;;;;;;5113021;28;20233;-79
2023/03/13 00:28:00;;;;;;;5.22;1.45;;;25.80;99.90;;;;;;5093494;28;20597;-79
2023/03/13 00:30:31;;;;;;;4.40;1.42;;;25.80;99.90;;;;;;5101936;28;20194;-79
2023/03/13 00:33:02;;;;;;;4.60;1.30;;;25.80;99.90;;;;;;5112129;28;20194;-79
2023/03/13 00:35:33;;;;;;;6.63;1.55;;;25.80;99.90;;;;;;5109267;28;20201;-78
2023/03/13 00:38:06;;;;;;;4.38;1.35;;;25.80;99.90;;;;;;5115828;28;20704;-78
2023/03/13 00:40:37;;;;;;;4.72;1.30;;;25.80;99.90;;;;;;5112666;28;20277;-79
2023/03/13 00:43:09;;;;;;;6.30;1.55;;;25.80;99.90;;;;;;5106808;28;20202;-79
2023/03/13 00:45:40;;;;;;;4.72;1.38;;;25.80;99.90;;;;;;5096734;28;20202;-79
2023/03/13 00:48:13;;;;;;;3.92;1.30;;;25.80;99.90;;;;;;5106818;28;20253;-79
2023/03/13 00:50:44;;;;;;;4.85;1.40;;;25.80;99.90;;;;;;5100617;28;20665;-80
2023/03/13 00:53:18;;;;;;;8.75;1.60;;;25.80;99.90;;;;;;5111845;28;20205;-80
2023/03/13 00:55:57;;;;;;;3.60;1.30;;;25.80;99.90;;;;;;5110681;28;20203;-80
2023/03/13 00:58:29;;;;;;;6.03;1.38;;;25.80;99.90;;;;;;5112980;28;20202;-80
2023/03/13 01:01:07;;;;;;;4.03;1.20;;;25.80;99.90;;;;;;5098945;28;20210;-79
2023/03/13 01:03:40;;;;;;;6.32;1.42;;;25.90;99.90;;;;;;5093204;28;20195;-79
2023/03/13 01:06:12;;;;;;;4.53;1.30;;;26.20;99.90;;;;;;5100546;28;20579;-81
2023/03/13 01:08:45;;;;;;;4.65;1.30;;;26.30;99.90;;;;;;5097309;28;20249;-79
2023/03/13 01:11:18;;;;;;;4.85;1.50;;;26.30;99.90;;;;;;5110909;28;20194;-79
2023/03/13 01:13:50;;;;;;;5.63;1.20;;;26.40;99.90;;;;;;5093378;28;20661;-79
2023/03/13 01:16:22;;;;;;;5.40;1.20;;;26.40;99.90;;;;;;5099306;28;20202;-79
2023/03/13 01:18:54;;;;;;;4.65;1.40;;;26.30;99.90;;;;;;5093771;28;20199;-79
2023/03/13 01:21:26;;;;;;;3.55;1.20;;;26.20;99.90;;;;;;5094292;28;20202;-80
2023/03/13 01:24:00;;;;;;;5.85;1.50;;;26.20;99.90;;;;;;5115480;28;20203;-80
2023/03/13 01:26:31;;;;;;;4.82;1.25;;;26.20;99.90;;;;;;5110108;28;20214;-79
2023/03/13 01:29:02;;;;;;;3.78;1.23;;;26.10;99.90;;;;;;5100341;28;20242;-79
2023/03/13 01:31:35;;;;;;;5.28;1.20;;;26.00;99.90;;;;;;5093176;28;20649;-80
2023/03/13 01:34:08;;;;;;;3.40;1.10;;;25.90;99.90;;;;;;5095649;28;20191;-80
2023/03/13 01:36:45;;;;;;;4.32;1.40;;;25.80;99.90;;;;;;5103038;28;20676;-80
2023/03/13 01:39:20;;;;;;;6.47;1.30;;;25.90;99.90;;;;;;5095043;28;20220;-79
2023/03/13 01:41:51;;;;;;;3.63;0.95;;;25.80;99.90;;;;;;5110511;28;20194;-79
2023/03/13 01:44:31;;;;;;;7.57;1.30;;;25.90;99.90;;;;;;5116131;28;20195;-82
2023/03/13 01:47:02;;;;;;;4.72;1.20;;;26.10;99.90;;;;;;5107178;28;20186;-80
2023/03/13 01:49:37;;;;;;;6.05;1.40;;;26.30;99.90;;;;;;5100224;28;20223;-80
2023/03/13 01:52:12;;;;;;;4.43;1.40;;;26.30;99.90;;;;;;5103119;28;20194;-79
2023/03/13 01:54:48;;;;;;;7.10;1.60;;;26.50;99.90;;;;;;5109092;28;20566;-79
2023/03/13 01:57:26;;;;;;;3.63;1.13;;;26.50;99.90;;;;;;5100871;28;20194;-80
2023/03/13 02:00:02;;;;;;;5.25;1.20;;;26.50;99.90;;;;;;5107791;28;20191;-81
2023/03/13 02:02:35;;;;;;;2.88;1.00;;;26.50;99.90;;;;;;5092559;28;20581;-81
2023/03/13 02:05:08;;;;;;;5.43;1.30;;;26.30;99.90;;;;;;5093192;28;20200;-82
2023/03/13 02:07:43;;;;;;;5.25;1.38;;;26.30;99.90;;;;;;5103329;28;20202;-81
2023/03/13 02:10:19;;;;;;;5.35;1.30;;;26.30;99.90;;;;;;5093492;28;20213;-81
2023/03/13 02:12:50;;;;;;;6.03;1.20;;;26.20;99.90;;;;;;5107608;28;20251;-81
2023/03/13 02:15:23;;;;;;;4.72;1.10;;;26.30;99.90;;;;;;5111018;28;20201;-81
2023/03/13 02:17:55;;;;;;;4.47;1.20;;;26.30;99.90;;;;;;5092591;28;20202;-81
2023/03/13 02:20:29;;;;;;;3.88;1.17;;;26.30;99.90;;;;;;5098491;28;20602;-81
2023/03/13 02:23:06;;;;;;;7.25;1.35;;;26.30;99.90;;;;;;5114258;28;20194;-80
2023/03/13 02:25:44;;;;;;;5.25;1.27;;;26.20;99.90;;;;;;5107921;28;20218;-80
2023/03/13 02:28:20;;;;;;;3.67;1.13;;;26.20;99.90;;;;;;5106157;28;20236;-80
2023/03/13 02:30:52;;;;;;;5.10;1.48;;;26.10;99.90;;;;;;5099619;28;20221;-80
2023/03/13 02:33:28;;;;;;;5.82;1.25;;;26.20;99.90;;;;;;5094195;28;20324;-81
2023/03/13 02:36:00;;;;;;;4.07;1.27;;;26.20;99.90;;;;;;5108946;28;20286;-80
2023/03/13 02:38:34;;;;;;;5.13;1.40;;;26.20;99.90;;;;;;5110507;28;20205;-81
2023/03/13 02:41:09;;;;;;;5.05;1.00;;;26.20;99.90;;;;;;5093258;27;20223;-80
2023/03/13 02:43:41;;;;;;;5.55;1.30;;;26.30;99.90;;;;;;5095346;28;20593;-80
2023/03/13 02:46:14;;;;;;;5.10;1.38;;;26.30;99.90;;;;;;5095477;28;20195;-80
2023/03/13 02:48:49;;;;;;;2.65;1.10;;;26.30;99.90;;;;;;5098665;28;20578;-79
2023/03/13 02:51:27;;;;;;;4.43;1.20;;;26.30;99.90;;;;;;5091636;28;20191;-80
2023/03/13 02:54:02;;;;;;;5.68;1.27;;;26.30;99.90;;;;;;5103597;28;20190;-79
2023/03/13 02:56:38;;;;;;;4.13;1.38;;;26.40;99.90;;;;;;5098109;28;20210;-79
2023/03/13 02:59:09;;;;;;;5.47;1.15;;;26.40;99.90;;;;;;5101695;28;20203;-79
2023/03/13 03:01:40;;;;;;;7.18;1.40;;;26.40;99.90;;;;;;5097585;28;20199;-83
2023/03/13 03:04:11;;;;;;;3.92;1.63;;;26.30;99.90;;;;;;5100449;28;20198;-79
2023/03/13 03:06:43;;;;;;;3.92;1.17;;;26.20;99.90;;;;;;5093261;28;20643;-80
2023/03/13 03:09:14;;;;;;;4.15;1.10;;;26.20;99.90;;;;;;5100820;28;20215;-80
2023/03/13 03:11:47;;;;;;;4.05;1.20;;;26.20;99.90;;;;;;5093782;28;20260;-79
2023/03/13 03:14:18;;;;;;;4.90;1.60;;;26.20;99.90;;;;;;5107526;28;20665;-79
2023/03/13 03:16:49;;;;;;;3.28;1.13;;;26.10;99.90;;;;;;5098464;28;20195;-79
2023/03/13 03:19:20;;;;;;;4.70;1.13;;;26.10;99.90;;;;;;5096487;28;20202;-79
2023/03/13 03:21:51;;;;;;;5.18;1.17;;;26.10;99.90;;;;;;5093489;28;20191;-81
2023/03/13 03:24:23;;;;;;;3.42;1.25;;;26.10;99.90;;;;;;5104407;28;20203;-80
2023/03/13 03:26:56;;;;;;;4.78;1.75;;;26.10;99.90;;;;;;5094255;28;20215;-80
2023/03/13 03:29:29;;;;;;;4.55;1.70;;;26.00;99.90;;;;;;5092000;28;20238;-80
2023/03/13 03:32:00;;;;;;;5.03;1.83;;;25.90;99.90;;;;;;5093597;28;20194;-81
2023/03/13 03:34:31;;;;;;;6.68;1.52;;;25.80;99.90;;;;;;5096221;28;20247;-80
2023/03/13 03:37:02;;;;;;;5.30;1.58;;;25.80;99.90;;;;;;5100235;28;20195;-79
2023/03/13 03:39:35;;;;;;;4.15;1.30;;;25.70;99.90;;;;;;5095425;28;20680;-80
2023/03/13 03:42:09;;;;;;;6.22;1.30;;;25.60;99.90;;;;;;5090824;28;20194;-81
2023/03/13 03:44:41;;;;;;;5.85;1.60;;;25.50;99.90;;;;;;5089211;28;20199;-79
2023/03/13 03:47:15;;;;;;;7.50;1.42;;;25.50;99.90;;;;;;5093397;28;20247;-80
2023/03/13 03:49:46;;;;;;;6.10;1.48;;;25.50;99.90;;;;;;5104690;28;20221;-80
2023/03/13 03:52:18;;;;;;;6.53;1.60;;;25.50;99.90;;;;;;5097728;28;20195;-82
2023/03/13 03:54:49;;;;;;;6.45;1.40;;;25.50;99.90;;;;;;5090667;28;20200;-80
2023/03/13 03:57:22;;;;;;;5.25;1.25;;;25.50;99.90;;;;;;5103179;28;20220;-81
2023/03/13 03:59:53;;;;;;;3.60;1.23;;;25.50;99.90;;;;;;5109956;28;20201;-81
2023/03/13 04:02:24;;;;;;;5.00;1.40;;;25.50;99.90;;;;;;5094687;28;20202;-81
2023/03/13 04:04:55;;;;;;;4.63;1.50;;;25.50;99.90;;;;;;5108048;28;20187;-80
2023/03/13 04:07:27;;;;;;;4.63;1.40;;;25.50;99.90;;;;;;5104142;28;20198;-80
2023/03/13 04:09:58;;;;;;;5.20;1.45;;;25.60;99.90;;;;;;5104434;28;20223;-78
2023/03/13 04:12:31;;;;;;;3.67;1.30;;;25.60;99.90;;;;;;5098591;28;21243;-80
2023/03/13 04:15:03;;;;;;;5.72;1.42;;;25.70;99.90;;;;;;5109709;28;20186;-81
2023/03/13 04:17:35;;;;;;;5.57;1.33;;;25.80;99.90;;;;;;5102527;28;20199;-80
2023/03/13 04:20:07;;;;;;;6.63;1.48;;;25.80;99.90;;;;;;5098443;28;20200;-81
2023/03/13 04:22:41;;;;;;;5.18;1.27;;;25.80;99.90;;;;;;5112494;28;20199;-81
2023/03/13 04:25:13;;;;;;;4.68;1.10;;;25.90;99.90;;;;;;5104074;28;20292;-80
2023/03/13 04:27:46;;;;;;;6.68;1.45;;;26.00;99.90;;;;;;5109535;28;20232;-80
2023/03/13 04:30:17;;;;;;;4.50;1.23;;;26.00;99.90;;;;;;5106151;28;20562;-80
2023/03/13 04:32:49;;;;;;;4.30;1.33;;;26.10;99.90;;;;;;5104351;28;20202;-81
2023/03/13 04:35:20;;;;;;;4.43;1.33;;;26.00;99.90;;;;;;5102457;28;20653;-81
2023/03/13 04:37:52;;;;;;;2.42;1.20;;;26.00;99.90;;;;;;5107352;28;20198;-81
2023/03/13 04:40:23;;;;;;;4.68;1.30;;;26.00;99.90;;;;;;5109970;28;20633;-81
2023/03/13 04:42:56;;;;;;;4.75;1.30;;;26.10;99.90;;;;;;5100666;28;20285;-81
2023/03/13 04:45:27;;;;;;;4.07;1.30;;;26.20;99.90;;;;;;5104121;28;20199;-81
2023/03/13 04:47:58;;;;;;;6.72;1.50;;;26.10;99.90;;;;;;5104099;28;20537;-81
2023/03/13 04:50:29;;;;;;;4.30;1.33;;;26.20;99.90;;;;;;5110628;28;20700;-81
2023/03/13 04:53:00;;;;;;;2.35;1.08;;;26.20;99.90;;;;;;5106925;28;20199;-81
2023/03/13 04:55:32;;;;;;;3.83;1.10;;;26.10;99.90;;;;;;5111384;28;20191;-81
2023/03/13 04:58:05;;;;;;;4.05;1.35;;;26.00;99.90;;;;;;5100490;28;20194;-80
2023/03/13 05:00:38;;;;;;;5.65;1.30;;;26.00;99.90;;;;;;5100298;28;20204;-81
2023/03/13 05:03:09;;;;;;;6.00;1.45;;;26.00;99.90;;;;;;5108574;28;20195;-81
2023/03/13 05:05:41;;;;;;;5.05;1.30;;;26.00;99.90;;;;;;5109595;28;20195;-81
2023/03/13 05:08:12;;;;;;;3.55;1.20;;;25.90;99.90;;;;;;5100961;28;20280;-82
2023/03/13 05:10:46;;;;;;;5.82;1.20;;;26.00;99.90;;;;;;5112021;28;20620;-81
2023/03/13 05:13:19;;;;;;;4.10;1.10;;;26.00;99.90;;;;;;5113469;28;20190;-82
2023/03/13 05:15:50;;;;;;;5.97;1.25;;;26.00;99.90;;;;;;5095816;28;20211;-81
2023/03/13 05:18:21;;;;;;;6.82;1.40;;;25.90;99.90;;;;;;5101961;28;20199;-81
2023/03/13 05:20:52;;;;;;;5.38;1.40;;;25.80;99.90;;;;;;5095970;28;20191;-81
2023/03/13 05:23:23;;;;;;;5.68;1.20;;;25.80;99.90;;;;;;5103432;28;20201;-80
2023/03/13 05:25:55;;;;;;;5.15;1.33;;;25.90;99.90;;;;;;5105607;28;20571;-80
2023/03/13 05:28:28;;;;;;;4.82;1.27;;;25.80;99.90;;;;;;5108686;28;20313;-80
2023/03/13 05:30:59;;;;;;;5.88;1.70;;;25.80;99.90;;;;;;5108669;28;20194;-80
2023/03/13 05:33:30;;;;;;;5.00;1.60;;;25.80;99.90;;;;;;5098213;28;20198;-80
2023/03/13 05:36:01;;;;;;;6.00;1.15;;;25.70;99.90;;;;;;5107754;28;20203;-81
2023/03/13 05:38:32;;;;;;;5.05;1.50;;;25.70;99.90;;;;;;5110964;28;20194;-80
2023/03/13 05:41:03;;;;;;;3.97;1.00;;;25.70;99.90;;;;;;5103957;28;20220;-79
2023/03/13 05:43:36;;;;;;;3.88;1.15;;;25.60;99.90;;;;;;5104726;28;20194;-79
2023/03/13 05:46:08;;;;;;;3.75;1.00;;;25.60;99.90;;;;;;5104117;28;20190;-80
2023/03/13 05:48:39;;;;;;;3.97;1.25;;;25.60;99.90;;;;;;5100804;28;20217;-79
2023/03/13 05:51:10;;;;;;;2.30;0.90;;;25.60;99.90;;;;;;5099108;27;20564;-81
2023/03/13 05:53:41;;;;;;;5.10;1.30;;;25.70;99.90;;;;;;5107410;28;20588;-80
2023/03/13 05:56:13;;;;;;;5.60;1.60;;;25.60;99.90;;;;;;5105919;28;20199;-80
2023/03/13 05:58:46;;;;;;;4.15;1.33;;;25.60;99.90;;;;;;5107219;28;20191;-80
2023/03/13 06:01:20;;;;;;;3.78;1.20;;;25.60;99.90;;;;;;5103849;28;20200;-80
2023/03/13 06:03:51;;;;;;;4.47;1.30;;;25.60;99.90;;;;;;5099586;28;20556;-79
2023/03/13 06:06:22;;;;;;;3.00;1.20;;;25.70;99.90;;;;;;5102743;28;20662;-80
2023/03/13 06:08:54;;;;;;;3.72;1.10;;;25.80;99.90;;;;;;5107432;28;20198;-79
2023/03/13 06:11:26;;;;;;;4.80;1.20;;;26.00;99.90;;;;;;5106038;28;20230;-79
2023/03/13 06:13:59;;;;;;;5.07;1.40;;;26.10;99.90;;;;;;5110764;28;20570;-80
2023/03/13 06:16:30;;;;;;;3.20;1.10;;;26.20;99.90;;;;;;5103342;28;20209;-80
2023/03/13 06:19:01;;;;;;;4.35;1.35;;;26.20;99.90;;;;;;5098922;28;20197;-81
2023/03/13 06:21:33;;;;;;;5.25;1.20;;;26.10;99.90;;;;;;5101047;28;20199;-81
2023/03/13 06:24:04;;;;;;;3.38;1.10;;;25.90;99.90;;;;;;5107281;28;20202;-81
2023/03/13 06:26:35;;;;;;;3.38;1.10;;;25.90;99.90;;;;;;5102229;28;20202;-81
2023/03/13 06:29:08;;;;;;;4.80;1.30;;;25.80;99.90;;;;;;5094670;28;20246;-80
2023/03/13 06:31:39;;;;;;;3.28;1.30;;;25.80;99.90;;;;;;5101595;28;20653;-81
2023/03/13 06:34:12;;;;;;;2.33;1.20;;;25.70;99.90;;;;;;5103787;28;20557;-80
2023/03/13 06:36:43;;;;;;;3.45;1.20;;;25.60;99.90;;;;;;5108507;28;20191;-80
2023/03/13 06:39:15;;;;;;;4.57;1.30;;;25.50;99.90;;;;;;5108787;28;20221;-80
2023/03/13 06:41:46;;;;;;;3.55;1.25;;;25.50;99.90;;;;;;5091699;28;20210;-80
2023/03/13 06:44:19;;;;;;;5.22;1.60;;;25.40;99.90;;;;;;5106071;28;20196;-79
2023/03/13 06:46:53;;;;;;;4.00;1.50;;;25.40;99.90;;;;;;5108335;28;20203;-79
2023/03/13 06:49:27;;;;;;;6.93;1.42;;;25.30;99.90;;;;;;5106884;28;20215;-81
2023/03/13 06:52:00;;;;;;;5.57;1.98;;;25.20;99.90;;;;;;5107130;28;20206;-81
2023/03/13 06:54:31;;;;;;;5.07;2.20;;;25.20;99.90;;;;;;5093778;28;20200;-81
2023/03/13 06:57:02;;;;;;;4.55;2.08;;;25.10;99.90;;;;;;5100773;28;20194;-80
2023/03/13 06:59:35;;;;;;;7.18;2.42;;;25.10;99.90;;;;;;5093671;28;20198;-80
2023/03/13 07:02:06;;;;;;;9.00;3.05;;;25.20;99.90;;;;;;5094272;28;20199;-80
2023/03/13 07:04:38;;;;;;;11.05;4.70;;;25.10;99.90;;;;;;5092205;28;20198;-80
2023/03/13 07:07:09;;;;;;;6.63;3.38;;;25.00;99.90;;;;;;5102760;28;20200;-80
2023/03/13 07:09:40;;;;;;;7.25;3.83;;;25.00;99.90;;;;;;5091545;28;20221;-81
2023/03/13 07:12:11;;;;;;;12.95;2.80;;;25.00;99.90;;;;;;5104669;28;20199;-80
2023/03/13 07:14:44;;;;;;;4.50;1.65;;;24.90;99.90;;;;;;5092464;28;20206;-80
2023/03/13 07:17:16;;;;;;;8.15;1.50;;;24.90;99.90;;;;;;5097908;28;20203;-80
2023/03/13 07:19:47;;;;;;;5.43;1.50;;;24.80;99.90;;;;;;5097824;28;20206;-81
2023/03/13 07:22:18;;;;;;;5.10;1.40;;;24.80;99.90;;;;;;5111344;28;20201;-80
2023/03/13 07:24:50;;;;;;;5.82;1.80;;;24.80;99.90;;;;;;5103714;28;20759;-81
2023/03/13 07:27:21;;;;;;;5.57;1.58;;;24.70;99.90;;;;;;5095129;28;20194;-79
2023/03/13 07:29:55;;;;;;;5.47;1.48;;;24.70;99.90;;;;;;5111346;28;20222;-80
2023/03/13 07:32:27;;;;;;;5.53;1.40;;;24.70;99.90;;;;;;5097406;28;20201;-82
2023/03/13 07:34:58;;;;;;;5.25;1.50;;;24.60;99.90;;;;;;5111223;28;20190;-82
2023/03/13 07:37:29;;;;;;;4.18;1.33;;;24.60;99.90;;;;;;5100073;28;20215;-82
2023/03/13 07:40:01;;;;;;;7.20;1.63;;;24.60;99.90;;;;;;5106180;28;20199;-82
2023/03/13 07:42:32;;;;;;;5.57;1.40;;;24.60;99.90;;;;;;5096627;28;20665;-82
2023/03/13 07:45:05;;;;;;;5.57;1.50;;;24.50;99.90;;;;;;5098547;28;20191;-81
2023/03/13 07:47:37;;;;;;;6.00;1.65;;;24.50;99.90;;;;;;5091915;28;20230;-82
2023/03/13 07:50:09;;;;;;;5.72;1.42;;;24.50;99.90;;;;;;5095670;28;20215;-81
2023/03/13 07:52:40;;;;;;;9.45;1.50;;;24.40;99.90;;;;;;5097033;28;20202;-80
2023/03/13 07:55:12;;;;;;;5.85;1.40;;;24.50;99.90;;;;;;5100722;28;20202;-82
2023/03/13 07:57:45;;;;;;;6.40;1.75;;;24.40;99.90;;;;;;5101354;28;20676;-82
2023/03/13 08:00:19;;;;;;;7.15;1.63;;;24.40;99.90;;;;;;5091742;28;20283;-82
2023/03/13 08:02:50;;;;;;;5.05;1.52;;;24.40;99.90;;;;;;5092440;28;22253;-80
2023/03/13 08:05:22;;;;;;;7.28;1.77;;;24.40;99.90;;;;;;5095782;28;20649;-81
2023/03/13 08:07:53;;;;;;;6.75;2.80;;;24.30;99.90;;;;;;5101719;28;20196;-81
2023/03/13 08:10:24;;;;;;;6.13;3.08;;;24.30;99.90;;;;;;5101039;28;20221;-81
2023/03/13 08:12:55;;;;;;;8.02;2.25;;;24.30;99.90;;;;;;5102596;28;20215;-80
2023/03/13 08:15:31;;;;;;;4.78;1.67;;;24.30;99.90;;;;;;5091371;28;20199;-81
2023/03/13 08:18:02;;;;;;;7.88;2.30;;;24.30;99.90;;;;;;5092325;28;20553;-81
2023/03/13 08:20:33;;;;;;;6.18;1.70;;;24.30;99.90;;;;;;5090040;28;20207;-81
2023/03/13 08:23:04;;;;;;;6.03;2.88;;;24.30;99.90;;;;;;5096519;28;20237;-80
2023/03/13 08:25:36;;;;;;;6.38;2.90;;;24.30;99.90;;;;;;5098219;28;20219;-81
2023/03/13 08:28:07;;;;;;;7.05;2.50;;;24.30;99.90;;;;;;5108113;28;20709;-79
2023/03/13 08:30:40;;;;;;;6.53;2.55;;;24.30;99.90;;;;;;5112358;28;20223;-80
2023/03/13 08:33:12;;;;;;;5.10;2.45;;;24.30;99.90;;;;;;5110670;28;20205;-80
2023/03/13 08:35:43;;;;;;;7.03;2.35;;;24.30;99.90;;;;;;5123124;28;20194;-74
2023/03/13 08:38:16;;;;;;;7.78;3.63;;;24.30;99.90;;;;;;5128625;28;20190;-81
2023/03/13 08:40:47;;;;;;;8.32;2.20;;;24.30;99.90;;;;;;5098479;28;20192;-81
2023/03/13 08:43:18;;;;;;;8.48;1.67;;;24.30;99.90;;;;;;5114713;28;20218;-80
2023/03/13 08:45:57;;;;;;;7.63;2.00;;;24.30;99.90;;;;;;5107378;28;20190;-80
2023/03/13 08:48:28;;;;;;;7.90;1.88;;;24.30;99.90;;;;;;5096905;27;20192;-80
2023/03/13 08:51:05;;;;;;;8.27;2.67;;;24.30;99.90;;;;;;5095576;28;20413;-78
2023/03/13 08:53:37;;;;;;;6.53;1.85;;;24.30;99.90;;;;;;5106731;28;20647;-81
2023/03/13 08:56:09;;;;;;;7.90;2.10;;;24.30;99.90;;;;;;5108428;28;20199;-80
2023/03/13 08:58:42;;;;;;;5.28;1.48;;;24.30;99.90;;;;;;5106493;28;20213;-80
2023/03/13 09:01:16;;;;;;;6.20;1.55;;;24.30;99.90;;;;;;5113794;28;20283;-80
2023/03/13 09:03:47;;;;;;;3.72;1.25;;;24.30;99.90;;;;;;5098837;28;20271;-81
2023/03/13 09:06:27;;;;;;;4.95;1.25;;;24.20;99.90;;;;;;5107496;28;20198;-79
2023/03/13 09:09:03;;;;;;;4.68;1.38;;;24.30;99.90;;;;;;5099693;28;20710;-81
2023/03/13 09:11:35;;;;;;;4.13;1.20;;;24.30;99.90;;;;;;5095413;28;20309;-80
2023/03/13 09:14:06;;;;;;;4.15;1.10;;;24.30;99.90;;;;;;5094594;28;20199;-81
2023/03/13 09:16:40;;;;;;;5.45;1.33;;;24.30;99.90;;;;;;5100757;28;20195;-80
2023/03/13 09:19:11;;;;;;;6.13;1.30;;;24.30;99.90;;;;;;5102296;28;20187;-81
2023/03/13 09:21:42;;;;;;;5.45;1.17;;;24.30;99.90;;;;;;5111446;28;20205;-81
2023/03/13 09:24:13;;;;;;;4.28;1.30;;;24.30;99.90;;;;;;5113175;28;20660;-79
2023/03/13 09:26:45;;;;;;;5.35;1.30;;;24.30;99.90;;;;;;5113570;28;20241;-81
2023/03/13 09:29:16;;;;;;;4.45;1.27;;;24.30;99.90;;;;;;5112213;28;20222;-79
2023/03/13 09:31:49;;;;;;;4.30;1.13;;;24.30;99.90;;;;;;5092735;28;20233;-79
2023/03/13 09:34:22;;;;;;;6.18;1.30;;;24.30;99.90;;;;;;5110697;28;20187;-80
2023/03/13 09:36:53;;;;;;;4.30;1.13;;;24.30;99.90;;;;;;5099363;28;20203;-79
2023/03/13 09:39:24;;;;;;;4.07;1.30;;;24.30;99.90;;;;;;5094449;28;20195;-80
2023/03/13 09:42:03;;;;;;;4.65;1.33;;;24.30;99.90;;;;;;5093226;28;20577;-81
2023/03/13 09:44:40;;;;;;;3.25;1.10;;;24.30;99.90;;;;;;5097197;28;20210;-82
2023/03/13 09:47:20;;;;;;;3.45;0.98;;;24.30;99.90;;;;;;5098507;28;20191;-80
2023/03/13 09:49:55;;;;;;;4.18;1.60;;;24.30;99.90;;;;;;5104188;28;20191;-81
2023/03/13 09:52:28;;;;;;;4.85;1.27;;;24.30;99.90;;;;;;5101225;28;20243;-80
2023/03/13 09:55:03;;;;;;;4.53;1.10;;;24.30;99.90;;;;;;5099025;28;20224;-80
2023/03/13 09:57:37;;;;;;;2.47;1.00;;;24.30;99.90;;;;;;5093319;28;20205;-81
2023/03/13 10:00:15;;;;;;;4.93;1.20;;;24.20;99.90;;;;;;5113657;28;20201;-80
2023/03/13 10:02:54;;;;;;;3.72;1.30;;;24.30;99.90;;;;;;5111827;28;20646;-81
2023/03/13 10:05:27;;;;;;;5.63;1.40;;;24.20;99.90;;;;;;5107021;28;20281;-80
2023/03/13 10:08:03;;;;;;;8.18;1.30;;;24.20;99.90;;;;;;5104678;28;20196;-81
2023/03/13 10:10:42;;;;;;;6.47;1.25;;;24.20;99.90;;;;;;5102560;28;20633;-81
2023/03/13 10:13:21;;;;;;;4.35;1.33;;;24.20;99.90;;;;;;5096029;28;20202;-81
2023/03/13 10:15:57;;;;;;;4.85;1.20;;;24.20;99.90;;;;;;5104701;28;20204;-80
2023/03/13 10:18:30;;;;;;;4.90;1.08;;;24.20;99.90;;;;;;5107772;28;20578;-81
2023/03/13 10:21:21;;;;;;;5.25;1.00;;;24.10;99.90;;;;;;5106506;28;20580;-80
2023/03/13 10:23:57;;;;;;;4.63;1.20;;;24.10;99.90;;;;;;5109294;28;20203;-79
2023/03/13 10:26:31;;;;;;;5.20;1.10;;;24.10;99.90;;;;;;5110826;28;20205;-80
2023/03/13 10:29:21;;;;;;;4.63;0.98;;;24.10;99.90;;;;;;5115621;28;20230;-80
2023/03/13 10:31:59;;;;;;;4.65;1.40;;;24.10;99.90;;;;;;5103767;28;20737;-80
2023/03/13 10:34:48;;;;;;;5.47;1.10;;;24.10;99.90;;;;;;5102893;28;20212;-80
2023/03/13 10:37:23;;;;;;;3.83;1.13;;;24.10;99.90;;;;;;5109391;28;20198;-79
2023/03/13 10:39:54;;;;;;;5.20;1.27;;;24.00;99.90;;;;;;5103372;28;20194;-80
2023/03/13 10:42:29;;;;;;;4.50;1.10;;;24.00;99.90;;;;;;5100632;28;20605;-80
2023/03/13 10:45:01;;;;;;;5.70;1.20;;;24.00;99.90;;;;;;5095459;28;20689;-80
2023/03/13 10:47:39;;;;;;;5.80;1.15;;;24.00;99.90;;;;;;5106507;28;20213;-79
2023/03/13 10:50:22;;;;;;;2.60;0.90;;;24.00;99.90;;;;;;5112351;28;20210;-80
2023/03/13 10:52:54;;;;;;;5.57;1.30;;;24.00;99.90;;;;;;5111210;28;20198;-80
2023/03/13 10:55:29;;;;;;;3.90;0.80;;;24.10;99.90;;;;;;5102967;28;20199;-80
2023/03/13 10:58:02;;;;;;;3.53;0.95;;;24.00;99.90;;;;;;5093020;28;20498;-80
2023/03/13 11:00:37;;;;;;;4.38;0.95;;;24.00;99.90;;;;;;5094166;28;20688;-80
2023/03/13 11:03:19;;;;;;;5.53;0.95;;;24.00;99.90;;;;;;5100197;28;20198;-80
2023/03/13 11:05:59;;;;;;;4.60;1.00;;;24.00;99.90;;;;;;5111781;28;20199;-82
2023/03/13 11:08:36;;;;;;;4.22;1.10;;;24.00;99.90;;;;;;5110909;28;20596;-81
2023/03/13 11:11:22;;;;;;;5.38;0.98;;;24.00;99.90;;;;;;5097835;28;20219;-80
2023/03/13 11:13:53;;;;;;;4.95;1.10;;;24.00;99.90;;;;;;5108922;28;20202;-81
2023/03/13 11:16:27;;;;;;;4.25;1.30;;;24.00;99.90;;;;;;5108689;28;20195;-80
2023/03/13 11:19:30;;;;;;;6.35;1.20;;;24.00;99.90;;;;;;5097107;28;20533;-81
2023/03/13 11:22:26;;;;;;;5.35;1.40;;;24.00;99.90;;;;;;5082483;28;20577;-80
2023/03/13 11:25:15;;;;;;;4.43;1.23;;;24.00;99.90;;;;;;5093924;28;20190;-81
2023/03/13 11:27:52;;;;;;;7.50;1.33;;;24.00;99.90;;;;;;5110726;28;20229;-80
2023/03/13 11:30:36;;;;;;;3.40;1.20;;;24.00;99.90;;;;;;5092993;28;20704;-80
2023/03/13 11:33:16;;;;;;;6.35;1.23;;;24.00;99.90;;;;;;5091490;28;20195;-81
2023/03/13 11:35:51;;;;;;;7.25;1.30;;;23.90;99.90;;;;;;5092886;28;20300;-81
2023/03/13 11:38:33;;;;;;;5.65;1.30;;;23.90;99.90;;;;;;5091119;28;20595;-82
2023/03/13 11:41:16;;;;;;;5.47;1.33;;;23.90;99.90;;;;;;5094904;28;20541;-80
2023/03/13 11:44:18;;;;;;;3.97;0.90;;;23.90;99.90;;;;;;5108786;28;20210;-81
2023/03/13 11:47:02;;;;;;;6.28;1.10;;;23.90;99.90;;;;;;5099319;28;20201;-80
2023/03/13 11:49:53;;;;;;;7.45;1.20;;;23.90;99.90;;;;;;5096200;28;20573;-80
2023/03/13 11:52:37;;;;;;;5.55;1.35;;;23.90;99.90;;;;;;5098964;28;20214;-79
2023/03/13 11:55:44;;;;;;;5.57;1.30;;;23.90;99.90;;;;;;5096950;28;20195;-79
2023/03/13 11:58:54;;;;;;;4.38;1.10;;;23.90;99.90;;;;;;5102915;28;20198;-81
2023/03/13 12:01:28;;;;;;;6.53;1.67;;;23.90;99.90;;;;;;5046858;28;20205;-80
2023/03/13 12:04:05;;;;;;;8.60;1.58;;;23.90;99.90;;;;;;5092043;28;20226;-80
2023/03/13 12:06:39;;;;;;;4.60;1.20;;;23.90;99.90;;;;;;5110953;28;20220;-80
2023/03/13 12:09:16;;;;;;;6.65;1.35;;;23.90;99.90;;;;;;5096968;28;20217;-80
2023/03/13 12:12:02;;;;;;;6.45;1.25;;;23.90;99.90;;;;;;5108431;28;20704;-80
2023/03/13 12:14:37;;;;;;;4.57;1.10;;;24.00;99.90;;;;;;5109892;28;20209;-80
2023/03/13 12:17:11;;;;;;;4.85;1.00;;;23.90;99.90;;;;;;5098526;28;20232;-80
2023/03/13 12:19:49;;;;;;;5.30;1.00;;;24.00;99.90;;;;;;5117658;28;20218;-80
2023/03/13 12:22:24;;;;;;;3.95;1.30;;;24.00;99.90;;;;;;5093032;28;20541;-79
2023/03/13 12:25:02;;;;;;;5.47;1.30;;;24.00;99.90;;;;;;5110376;28;20212;-81
2023/03/13 12:27:40;;;;;;;3.63;1.10;;;24.00;99.90;;;;;;5109344;28;20244;-79
2023/03/13 12:30:26;;;;;;;5.10;1.27;;;23.90;99.90;;;;;;5098008;28;20210;-79
2023/03/13 12:33:05;;;;;;;8.20;1.40;;;23.90;99.90;;;;;;5101740;28;20222;-79
2023/03/13 12:35:40;;;;;;;3.70;1.20;;;23.90;99.90;;;;;;5094795;28;20672;-79
2023/03/13 12:38:21;;;;;;;5.68;1.35;;;23.90;99.90;;;;;;5093151;28;20225;-80
2023/03/13 12:41:06;;;;;;;5.15;1.42;;;23.90;99.90;;;;;;5104457;28;20191;-78
2023/03/13 12:43:44;;;;;;;4.13;1.20;;;23.90;99.90;;;;;;5100662;28;20209;-79
2023/03/13 12:46:41;;;;;;;6.28;1.45;;;23.90;99.90;;;;;;5097789;28;20199;-79
2023/03/13 12:49:48;;;;;;;6.57;1.42;;;23.80;99.90;;;;;;5111162;28;20194;-78
2023/03/13 12:52:56;;;;;;;6.97;1.90;;;23.80;99.90;;;;;;5076382;28;20232;-79
2023/03/13 12:55:46;;;;;;;6.20;1.50;;;23.80;99.90;;;;;;5089913;28;20658;-80
2023/03/13 12:58:27;;;;;;;5.53;1.27;;;23.80;99.90;;;;;;5090318;28;20615;-81
2023/03/13 13:01:09;;;;;;;7.65;1.50;;;23.80;99.90;;;;;;5089899;28;20222;-79
2023/03/13 13:03:52;;;;;;;4.75;1.42;;;23.90;99.90;;;;;;5090006;28;20570;-77
2023/03/13 13:06:23;;;;;;;4.80;1.30;;;23.80;99.90;;;;;;5110619;28;20195;-79
2023/03/13 13:09:10;;;;;;;5.75;1.55;;;23.90;99.90;;;;;;5109721;28;20215;-80
2023/03/13 13:12:03;;;;;;;4.78;1.30;;;23.90;99.90;;;;;;5103810;28;20230;-79
2023/03/13 13:15:15;;;;;;;7.47;1.40;;;23.90;99.90;;;;;;5109490;28;20665;-80
2023/03/13 13:18:07;;;;;;;6.20;1.50;;;23.90;99.90;;;;;;5102851;28;20191;-80
2023/03/13 13:20:43;;;;;;;7.13;1.35;;;23.90;99.90;;;;;;5101919;28;20304;-80
2023/03/13 13:23:38;;;;;;;6.13;1.20;;;23.90;99.90;;;;;;5112998;28;20202;-80
2023/03/13 13:26:50;;;;;;;6.53;1.52;;;23.90;99.90;;;;;;5112060;28;20566;-80